createdAt,value
2023-11-21T00:02:55.077Z,86.62
2023-11-21T00:07:58.748Z,86.98
2023-11-21T00:13:03.902Z,87.17
2023-11-21T00:18:07.921Z,87.23
2023-11-21T00:23:11.797Z,87.65
2023-11-21T00:28:15.434Z,87.59
2023-11-21T00:33:18.891Z,87.39
2023-11-21T00:38:22.716Z,87.58
2023-11-21T00:43:26.345Z,89.64
2023-11-21T00:48:29.892Z,91.44
2023-11-21T00:53:33.609Z,90.74
2023-11-21T00:58:36.993Z,90.26
2023-11-21T01:03:40.642Z,90.21
2023-11-21T01:08:46.162Z,89.81
2023-11-21T01:13:49.767Z,89.51
2023-11-21T01:18:53.480Z,88.63
2023-11-21T01:23:56.862Z,87.91
2023-11-21T01:29:00.429Z,86.75
2023-11-21T01:34:04.524Z,85.96
2023-11-21T01:39:09.948Z,86.14
2023-11-21T01:44:14.462Z,86.38
2023-11-21T01:49:19.060Z,86.43
2023-11-21T01:54:23.530Z,86.75
2023-11-21T01:59:28.592Z,87.28
2023-11-21T02:04:38.287Z,87.99
2023-11-21T02:09:43.775Z,88.87
2023-11-21T02:14:47.704Z,89.20
2023-11-21T02:19:52.443Z,89.63
2023-11-21T02:24:56.072Z,90.17
2023-11-21T02:30:00.922Z,90.26
2023-11-21T02:35:08.927Z,91.06
2023-11-21T02:40:19.101Z,92.37
2023-11-21T02:45:23.445Z,93.00
2023-11-21T02:50:28.113Z,93.82
2023-11-21T02:55:32.173Z,94.67
2023-11-21T03:00:36.007Z,95.00
2023-11-21T03:05:39.675Z,96.23
2023-11-21T03:10:43.314Z,97.26
2023-11-21T03:15:47.004Z,98.28
2023-11-21T03:20:53.576Z,98.82
2023-11-21T03:25:57.214Z,99.43
2023-11-21T03:31:00.980Z,99.83
2023-11-21T03:36:05.128Z,100.00
2023-11-21T03:41:11.269Z,100.00
2023-11-21T03:46:15.117Z,100.00
2023-11-21T03:51:18.715Z,100.00
2023-11-21T03:56:24.990Z,100.00
2023-11-21T04:01:28.714Z,100.00
2023-11-21T04:06:33.995Z,100.00
2023-11-21T04:11:37.615Z,100.00
2023-11-21T04:16:43.228Z,100.00
2023-11-21T04:21:47.231Z,100.00
2023-11-21T04:26:50.831Z,100.00
2023-11-21T04:31:55.366Z,100.00
2023-11-21T04:36:58.838Z,100.00
2023-11-21T04:42:03.411Z,100.00
2023-11-21T04:47:07.078Z,100.00
2023-11-21T04:52:11.026Z,100.00
2023-11-21T04:57:15.311Z,100.00
2023-11-21T05:02:30.532Z,100.00
2023-11-21T05:07:40.754Z,100.00
2023-11-21T05:12:44.535Z,100.00
2023-11-21T05:17:51.128Z,100.00
2023-11-21T05:22:54.953Z,100.00
2023-11-21T05:28:02.333Z,100.00
2023-11-21T05:33:06.630Z,100.00
2023-11-21T05:38:10.064Z,100.00
2023-11-21T05:43:13.679Z,100.00
2023-11-21T05:48:17.101Z,100.00
2023-11-21T05:53:20.884Z,100.00
2023-11-21T05:58:25.141Z,100.00
2023-11-21T06:03:29.819Z,100.00
2023-11-21T06:08:34.491Z,100.00
2023-11-21T06:13:39.088Z,100.00
2023-11-21T06:18:42.876Z,100.00
2023-11-21T06:23:46.585Z,100.00
2023-11-21T06:28:52.557Z,100.00
2023-11-21T06:33:56.657Z,100.00
2023-11-21T06:39:00.422Z,100.00
2023-11-21T06:44:05.869Z,100.00
2023-11-21T06:49:10.059Z,100.00
2023-11-21T06:54:14.739Z,100.00
2023-11-21T06:59:18.804Z,100.00
2023-11-21T07:04:22.359Z,100.00
2023-11-21T07:09:26.944Z,100.00
2023-11-21T07:14:30.517Z,100.00
2023-11-21T07:19:34.145Z,100.00
2023-11-21T07:24:38.489Z,99.59
2023-11-21T07:29:42.349Z,99.61
2023-11-21T07:34:46.527Z,99.81
2023-11-21T07:39:50.198Z,99.41
2023-11-21T07:44:54.226Z,99.08
2023-11-21T07:49:57.771Z,98.45
2023-11-21T07:55:01.428Z,97.56
2023-11-21T08:00:10.658Z,96.50
2023-11-21T08:05:24.757Z,95.95
2023-11-21T08:10:32.120Z,95.92
2023-11-21T08:15:36.830Z,95.12
2023-11-21T08:20:41.081Z,95.38
2023-11-21T08:25:48.310Z,94.86
2023-11-21T08:30:51.906Z,93.75
2023-11-21T08:35:56.108Z,93.80
2023-11-21T08:40:59.853Z,93.35
2023-11-21T08:46:04.306Z,93.03
2023-11-21T08:51:15.382Z,92.03
2023-11-21T08:56:19.764Z,91.62
2023-11-21T09:01:24.512Z,91.13
2023-11-21T09:06:28.440Z,91.15
2023-11-21T09:11:35.023Z,91.22
2023-11-21T09:16:39.965Z,90.74
2023-11-21T09:21:43.645Z,90.32
2023-11-21T09:26:47.160Z,88.26
2023-11-21T09:31:53.235Z,88.74
2023-11-21T09:36:56.789Z,89.45
2023-11-21T09:42:37.489Z,89.96
2023-11-21T09:47:41.233Z,90.34
2023-11-21T09:53:11.705Z,90.81
2023-11-21T09:58:16.340Z,91.02
2023-11-21T10:03:20.530Z,90.79
2023-11-21T10:08:38.935Z,90.35
2023-11-21T10:13:55.236Z,90.49
2023-11-21T10:19:09.026Z,91.63
2023-11-21T10:24:15.354Z,92.63
2023-11-21T10:29:19.761Z,93.89
2023-11-21T10:34:23.701Z,94.22
2023-11-21T10:39:31.872Z,95.35
2023-11-21T10:44:35.919Z,95.99
2023-11-21T10:49:41.651Z,96.18
2023-11-21T10:54:45.826Z,96.60
2023-11-21T10:59:53.252Z,97.08
2023-11-21T11:04:58.263Z,97.18
2023-11-21T11:10:02.013Z,97.24
2023-11-21T11:15:06.834Z,97.42
2023-11-21T11:20:23.302Z,97.68
2023-11-21T11:25:39.866Z,95.34
2023-11-21T11:31:18.298Z,94.53
2023-11-21T11:37:05.073Z,94.84
2023-11-21T11:42:13.439Z,93.88
2023-11-21T11:47:24.124Z,88.50
2023-11-21T11:52:44.169Z,89.20
2023-11-21T11:57:56.485Z,88.77
2023-11-21T12:03:04.805Z,90.24
2023-11-21T12:08:09.196Z,90.68
2023-11-21T12:13:16.231Z,91.32
2023-11-21T12:18:19.829Z,91.66
2023-11-21T12:23:23.561Z,90.26
2023-11-21T12:28:28.466Z,90.00
2023-11-21T12:33:32.003Z,90.61
2023-11-21T12:38:38.764Z,90.77
2023-11-21T12:43:42.499Z,90.43
2023-11-21T12:48:46.999Z,90.83
2023-11-21T12:53:51.167Z,90.33
2023-11-21T12:58:58.313Z,90.28
2023-11-21T13:04:03.442Z,90.37
2023-11-21T13:09:07.153Z,87.13
2023-11-21T13:14:12.436Z,85.71
2023-11-21T13:19:16.449Z,85.65
2023-11-21T13:24:20.037Z,87.16
2023-11-21T13:29:26.803Z,88.85
2023-11-21T13:34:34.135Z,90.90
2023-11-21T13:39:39.272Z,92.17
2023-11-21T13:44:46.256Z,92.91
2023-11-21T13:49:50.549Z,94.00
2023-11-21T13:54:54.759Z,94.47
2023-11-21T14:00:00.045Z,94.97
2023-11-21T14:05:10.392Z,95.36
2023-11-21T14:10:15.750Z,95.33
2023-11-21T14:15:20.483Z,95.66
2023-11-21T14:20:25.118Z,95.89
2023-11-21T14:25:29.545Z,96.08
2023-11-21T14:30:36.761Z,96.32
2023-11-21T14:35:40.343Z,96.72
2023-11-21T14:40:43.959Z,96.68
2023-11-21T14:45:47.572Z,97.38
2023-11-21T14:51:02.997Z,97.81
2023-11-21T14:56:08.926Z,98.36
2023-11-21T15:01:12.535Z,97.96
2023-11-21T15:06:22.299Z,99.52
2023-11-21T15:11:31.408Z,100.00
2023-11-21T15:16:41.506Z,100.00
2023-11-21T15:21:47.063Z,100.00
2023-11-21T15:26:51.583Z,100.00
2023-11-21T15:31:57.494Z,100.00
2023-11-21T15:37:01.476Z,100.00
2023-11-21T15:42:06.601Z,100.00
2023-11-21T15:47:10.298Z,100.00
2023-11-21T15:52:14.358Z,100.00
2023-11-21T15:57:19.536Z,100.00
2023-11-21T16:02:23.166Z,100.00
2023-11-21T16:07:26.790Z,100.00
2023-11-21T16:12:30.180Z,100.00
2023-11-21T16:17:34.995Z,100.00
2023-11-21T16:22:39.795Z,100.00
2023-11-21T16:27:44.582Z,100.00
2023-11-21T16:32:51.008Z,100.00
2023-11-21T16:37:54.678Z,100.00
2023-11-21T16:42:58.288Z,100.00
2023-11-21T16:48:04.021Z,100.00
2023-11-21T16:53:08.425Z,100.00
2023-11-21T16:58:12.300Z,100.00
2023-11-21T17:03:16.103Z,100.00
2023-11-21T17:08:20.747Z,100.00
2023-11-21T17:13:24.231Z,100.00
2023-11-21T17:18:28.448Z,100.00
2023-11-21T17:23:34.054Z,100.00
2023-11-21T17:28:38.778Z,100.00
2023-11-21T17:33:43.126Z,100.00
2023-11-21T17:38:47.352Z,100.00
2023-11-21T17:43:51.489Z,100.00
2023-11-21T17:48:55.902Z,100.00
2023-11-21T17:54:02.790Z,100.00
2023-11-21T17:59:07.510Z,100.00
2023-11-21T18:04:13.811Z,100.00
2023-11-21T18:09:18.212Z,100.00
2023-11-21T18:14:21.955Z,100.00
2023-11-21T18:19:25.627Z,100.00
2023-11-21T18:24:29.525Z,100.00
2023-11-21T18:29:33.368Z,100.00
2023-11-21T18:34:37.690Z,100.00
2023-11-21T18:39:41.198Z,100.00
2023-11-21T18:44:55.187Z,100.00
2023-11-21T18:50:02.627Z,100.00
2023-11-21T18:55:07.865Z,100.00
2023-11-21T19:00:13.540Z,100.00
2023-11-21T19:05:18.102Z,100.00
2023-11-21T19:10:22.482Z,100.00
2023-11-21T19:15:26.504Z,100.00
2023-11-21T19:20:30.258Z,100.00
2023-11-21T19:25:34.631Z,100.00
2023-11-21T19:30:41.245Z,100.00
2023-11-21T19:35:46.774Z,100.00
2023-11-21T19:40:50.730Z,100.00
2023-11-21T19:45:54.309Z,100.00
2023-11-21T19:50:57.926Z,100.00
2023-11-21T19:56:15.910Z,100.00
2023-11-21T20:01:20.986Z,100.00
2023-11-21T20:06:25.717Z,100.00
2023-11-21T20:11:32.772Z,100.00
2023-11-21T20:16:41.650Z,100.00
2023-11-21T20:21:47.334Z,100.00
2023-11-21T20:26:51.283Z,100.00
2023-11-21T20:31:54.951Z,100.00
2023-11-21T20:36:59.299Z,100.00
2023-11-21T20:42:03.088Z,100.00
2023-11-21T20:47:12.227Z,100.00
2023-11-21T20:52:16.788Z,100.00
2023-11-21T20:57:20.452Z,100.00
2023-11-21T21:02:25.301Z,100.00
2023-11-21T21:07:30.382Z,100.00
2023-11-21T21:12:33.935Z,100.00
2023-11-21T21:17:41.798Z,100.00
2023-11-21T21:22:46.328Z,100.00
2023-11-21T21:27:50.194Z,100.00
2023-11-21T21:32:53.696Z,100.00
2023-11-21T21:37:57.935Z,100.00
2023-11-21T21:43:02.291Z,100.00
2023-11-21T21:48:06.589Z,100.00
2023-11-21T21:53:13.698Z,100.00
2023-11-21T21:58:17.272Z,100.00
2023-11-21T22:03:21.074Z,100.00
2023-11-21T22:08:28.879Z,100.00
2023-11-21T22:13:32.492Z,100.00
2023-11-21T22:18:38.300Z,100.00
2023-11-21T22:23:41.966Z,100.00
2023-11-21T22:28:45.793Z,100.00
2023-11-21T22:33:49.394Z,100.00
2023-11-21T22:38:52.943Z,100.00
2023-11-21T22:43:56.633Z,100.00
2023-11-21T22:49:00.332Z,100.00
2023-11-21T22:54:04.249Z,100.00
2023-11-21T22:59:07.851Z,100.00
2023-11-21T23:04:11.640Z,100.00
2023-11-21T23:09:17.078Z,100.00
2023-11-21T23:14:20.784Z,100.00
2023-11-21T23:19:24.963Z,100.00
2023-11-21T23:24:29.105Z,100.00
2023-11-21T23:29:32.720Z,100.00
2023-11-21T23:34:38.863Z,100.00
2023-11-21T23:39:42.379Z,100.00
2023-11-21T23:44:48.493Z,100.00
2023-11-21T23:49:53.009Z,100.00
2023-11-21T23:54:57.760Z,100.00
